createdAt,value
2018-06-18T00:02:12.413Z,7.10
2018-06-18T00:04:41.744Z,6.03
2018-06-18T00:07:10.985Z,5.80
2018-06-18T00:09:40.283Z,9.70
2018-06-18T00:12:09.572Z,12.00
2018-06-18T00:14:38.970Z,8.40
2018-06-18T00:17:08.197Z,7.73
2018-06-18T00:19:37.483Z,5.00
2018-06-18T00:22:11.231Z,8.50
2018-06-18T00:24:40.500Z,5.77
2018-06-18T00:27:09.863Z,8.80
2018-06-18T00:29:39.153Z,8.43
2018-06-18T00:32:08.563Z,7.83
2018-06-18T00:34:37.769Z,5.93
2018-06-18T00:37:07.297Z,10.47
2018-06-18T00:39:36.521Z,7.00
2018-06-18T00:42:06.029Z,7.63
2018-06-18T00:44:35.293Z,7.73
2018-06-18T00:47:04.552Z,5.80
2018-06-18T00:49:33.790Z,8.00
2018-06-18T00:52:03.066Z,7.67
2018-06-18T00:54:32.354Z,12.00
2018-06-18T00:57:01.657Z,6.17
2018-06-18T00:59:30.924Z,8.07
2018-06-18T01:02:00.249Z,6.27
2018-06-18T01:04:29.645Z,11.07
2018-06-18T01:06:59.018Z,6.43
2018-06-18T01:09:28.274Z,10.37
2018-06-18T01:11:57.554Z,7.70
2018-06-18T01:14:26.894Z,6.90
2018-06-18T01:16:56.169Z,7.90
2018-06-18T01:19:25.497Z,11.00
2018-06-18T01:21:54.774Z,7.77
2018-06-18T01:25:01.372Z,6.47
2018-06-18T01:27:30.710Z,9.07
2018-06-18T01:29:59.999Z,10.00
2018-06-18T01:32:29.318Z,7.07
2018-06-18T01:34:58.549Z,5.80
2018-06-18T01:37:27.874Z,7.00
2018-06-18T01:39:57.193Z,6.27
2018-06-18T01:42:27.476Z,8.40
2018-06-18T01:44:56.722Z,8.30
2018-06-18T01:47:25.989Z,10.57
2018-06-18T01:49:55.256Z,6.90
2018-06-18T01:52:24.547Z,7.80
2018-06-18T01:54:53.936Z,7.07
2018-06-18T01:57:23.222Z,6.37
2018-06-18T01:59:52.437Z,6.63
2018-06-18T02:02:21.623Z,5.67
2018-06-18T02:04:50.936Z,9.13
2018-06-18T02:07:20.187Z,8.83
2018-06-18T02:09:49.428Z,8.27
2018-06-18T02:12:18.731Z,8.33
2018-06-18T02:14:48.019Z,7.40
2018-06-18T02:17:17.425Z,7.30
2018-06-18T02:19:46.700Z,12.17
2018-06-18T02:22:15.982Z,10.00
2018-06-18T02:24:45.225Z,8.40
2018-06-18T02:27:18.354Z,9.33
2018-06-18T02:29:52.809Z,7.37
2018-06-18T02:32:27.206Z,9.80
2018-06-18T02:35:01.961Z,9.73
2018-06-18T02:37:36.416Z,7.47
2018-06-18T02:40:10.816Z,9.43
2018-06-18T02:42:40.124Z,7.63
2018-06-18T02:45:09.440Z,8.90
2018-06-18T02:47:38.678Z,7.83
2018-06-18T02:50:07.931Z,6.73
2018-06-18T02:52:37.204Z,8.00
2018-06-18T02:55:07.084Z,10.63
2018-06-18T02:57:36.555Z,7.17
2018-06-18T03:00:06.409Z,8.63
2018-06-18T03:02:35.687Z,8.07
2018-06-18T03:05:05.027Z,9.27
2018-06-18T03:07:34.371Z,10.87
2018-06-18T03:10:03.673Z,9.23
2018-06-18T03:12:32.950Z,9.93
2018-06-18T03:15:02.253Z,9.27
2018-06-18T03:17:31.529Z,9.83
2018-06-18T03:20:06.107Z,9.63
2018-06-18T03:22:40.833Z,8.60
2018-06-18T03:25:15.287Z,8.03
2018-06-18T03:27:49.871Z,13.37
2018-06-18T03:30:19.244Z,9.60
2018-06-18T03:32:49.244Z,10.27
2018-06-18T03:35:18.442Z,12.10
2018-06-18T03:37:47.899Z,10.40
2018-06-18T03:40:17.108Z,9.10
2018-06-18T03:42:47.367Z,9.93
2018-06-18T03:45:20.448Z,8.97
2018-06-18T03:47:49.693Z,8.17
2018-06-18T03:50:18.999Z,9.73
2018-06-18T03:52:48.273Z,9.63
2018-06-18T03:55:22.757Z,15.90
2018-06-18T03:57:52.111Z,11.67
2018-06-18T04:00:21.478Z,9.53
2018-06-18T04:02:58.948Z,8.73
2018-06-18T04:05:34.631Z,9.57
2018-06-18T04:08:10.169Z,11.80
2018-06-18T04:10:44.973Z,10.87
2018-06-18T04:13:14.239Z,11.43
2018-06-18T04:15:44.504Z,9.07
2018-06-18T04:18:13.813Z,14.07
2018-06-18T04:20:46.272Z,10.03
2018-06-18T04:23:15.580Z,11.47
2018-06-18T04:25:45.091Z,11.10
2018-06-18T04:28:14.408Z,11.13
2018-06-18T04:30:45.124Z,7.83
2018-06-18T04:33:17.232Z,12.40
2018-06-18T04:35:46.502Z,11.43
2018-06-18T04:38:15.896Z,8.70
2018-06-18T04:40:45.146Z,8.27
2018-06-18T04:43:20.037Z,7.60
2018-06-18T04:45:54.671Z,7.07
2018-06-18T04:48:29.260Z,7.93
2018-06-18T04:51:00.296Z,10.07
2018-06-18T04:53:29.922Z,7.20
2018-06-18T04:55:59.190Z,6.83
2018-06-18T04:58:28.490Z,8.37
2018-06-18T05:01:04.506Z,9.00
2018-06-18T05:03:33.725Z,7.50
2018-06-18T05:06:03.027Z,5.83
2018-06-18T05:08:41.376Z,7.17
2018-06-18T05:11:10.607Z,7.47
2018-06-18T05:13:39.900Z,7.50
2018-06-18T05:16:09.140Z,7.50
2018-06-18T05:18:38.381Z,7.33
2018-06-18T05:21:07.656Z,8.30
2018-06-18T05:23:36.934Z,6.70
2018-06-18T05:26:06.277Z,8.57
2018-06-18T05:28:35.564Z,6.33
2018-06-18T05:31:04.854Z,8.00
2018-06-18T05:33:34.132Z,7.73
2018-06-18T05:36:03.402Z,9.17
2018-06-18T05:38:34.071Z,7.67
2018-06-18T05:41:03.384Z,5.40
2018-06-18T05:43:33.061Z,8.67
2018-06-18T05:46:02.268Z,9.00
2018-06-18T05:48:31.566Z,9.83
2018-06-18T05:51:01.125Z,9.20
2018-06-18T05:53:30.473Z,7.83
2018-06-18T05:55:59.696Z,6.00
2018-06-18T05:58:28.955Z,6.53
2018-06-18T06:00:58.222Z,5.87
2018-06-18T06:03:27.437Z,4.50
2018-06-18T06:05:56.758Z,6.03
2018-06-18T06:08:25.997Z,7.80
2018-06-18T06:10:55.229Z,5.97
2018-06-18T06:13:24.443Z,4.90
2018-06-18T06:15:53.649Z,5.27
2018-06-18T06:18:22.855Z,7.27
2018-06-18T06:20:56.915Z,7.90
2018-06-18T06:23:26.144Z,6.43
2018-06-18T06:25:55.319Z,6.87
2018-06-18T06:28:24.716Z,5.57
2018-06-18T06:30:54.214Z,5.03
2018-06-18T06:33:24.608Z,6.13
2018-06-18T06:35:54.648Z,7.10
2018-06-18T06:38:23.923Z,5.97
2018-06-18T06:40:53.188Z,4.27
2018-06-18T06:43:22.525Z,5.10
2018-06-18T06:45:51.805Z,4.50
2018-06-18T06:48:21.084Z,3.70
2018-06-18T06:50:50.357Z,3.37
2018-06-18T06:53:19.652Z,7.30
2018-06-18T06:55:48.960Z,7.27
2018-06-18T06:58:18.219Z,5.10
2018-06-18T07:00:47.599Z,6.43
2018-06-18T07:03:16.900Z,10.93
2018-06-18T07:05:46.256Z,5.90
2018-06-18T07:08:16.067Z,8.37
2018-06-18T07:10:45.912Z,6.90
2018-06-18T07:13:15.230Z,9.33
2018-06-18T07:15:44.431Z,8.60
2018-06-18T07:18:13.695Z,4.93
2018-06-18T07:20:45.109Z,8.27
2018-06-18T07:23:14.455Z,5.67
2018-06-18T07:25:44.322Z,5.70
2018-06-18T07:28:13.669Z,5.93
2018-06-18T07:30:43.000Z,5.53
2018-06-18T07:33:13.384Z,4.90
2018-06-18T07:35:42.782Z,6.83
2018-06-18T07:38:12.040Z,3.70
2018-06-18T07:40:42.317Z,7.70
2018-06-18T07:43:12.109Z,5.60
2018-06-18T07:45:41.933Z,5.43
2018-06-18T07:48:11.156Z,5.80
2018-06-18T07:50:40.514Z,5.10
2018-06-18T07:53:09.775Z,7.60
2018-06-18T07:55:39.121Z,6.07
2018-06-18T07:58:08.458Z,3.03
2018-06-18T08:00:37.809Z,6.57
2018-06-18T08:03:07.145Z,3.77
2018-06-18T08:05:36.391Z,4.90
2018-06-18T08:08:05.835Z,5.37
2018-06-18T08:10:35.185Z,5.03
2018-06-18T08:13:04.447Z,5.53
2018-06-18T08:15:33.744Z,5.57
2018-06-18T08:18:03.033Z,5.20
2018-06-18T08:20:32.311Z,5.70
2018-06-18T08:23:01.587Z,4.73
2018-06-18T08:25:30.909Z,4.77
2018-06-18T08:28:00.216Z,8.63
2018-06-18T08:30:29.556Z,4.80
2018-06-18T08:32:58.928Z,4.70
2018-06-18T08:35:28.236Z,5.73
2018-06-18T08:37:57.459Z,5.33
2018-06-18T08:40:26.781Z,3.73
2018-06-18T08:42:56.226Z,5.00
2018-06-18T08:45:25.485Z,5.07
2018-06-18T08:47:54.843Z,5.33
2018-06-18T08:50:29.405Z,4.20
2018-06-18T08:53:03.754Z,4.00
2018-06-18T08:55:38.389Z,3.57
2018-06-18T08:58:13.042Z,4.27
2018-06-18T09:00:47.396Z,8.70
2018-06-18T09:03:21.901Z,5.30
2018-06-18T09:05:55.389Z,5.47
2018-06-18T09:08:29.893Z,4.83
2018-06-18T09:10:59.760Z,4.80
2018-06-18T09:13:29.159Z,7.80
2018-06-18T09:15:58.463Z,5.30
2018-06-18T09:18:27.748Z,3.13
2018-06-18T09:20:57.109Z,4.83
2018-06-18T09:23:26.363Z,3.77
2018-06-18T09:26:16.294Z,4.40
2018-06-18T09:28:45.527Z,7.90
2018-06-18T09:31:14.816Z,4.22
2018-06-18T09:33:44.792Z,7.83
2018-06-18T09:36:14.272Z,5.00
2018-06-18T09:38:43.568Z,4.10
2018-06-18T09:41:12.852Z,3.70
2018-06-18T09:43:42.195Z,4.20
2018-06-18T09:46:11.439Z,4.80
2018-06-18T09:48:45.963Z,4.72
2018-06-18T09:51:20.603Z,5.87
2018-06-18T09:53:55.070Z,5.45
2018-06-18T09:56:29.655Z,2.62
2018-06-18T09:59:04.369Z,6.67
2018-06-18T10:01:34.233Z,4.22
2018-06-18T10:04:04.712Z,7.28
2018-06-18T10:06:36.535Z,4.83
2018-06-18T10:09:08.754Z,3.90
2018-06-18T10:11:38.144Z,5.67
2018-06-18T10:14:09.045Z,4.47
2018-06-18T10:16:38.359Z,5.55
2018-06-18T10:19:07.553Z,5.45
2018-06-18T10:21:36.774Z,4.75
2018-06-18T10:24:06.121Z,6.78
2018-06-18T10:26:35.381Z,3.60
2018-06-18T10:29:04.693Z,4.40
2018-06-18T10:31:34.113Z,5.00
2018-06-18T10:34:08.652Z,4.50
2018-06-18T10:36:43.093Z,6.67
2018-06-18T10:39:18.331Z,4.26
2018-06-18T10:41:52.824Z,4.58
2018-06-18T10:44:22.284Z,3.90
2018-06-18T10:46:51.568Z,6.12
2018-06-18T10:49:20.832Z,4.73
2018-06-18T10:51:50.107Z,6.23
2018-06-18T10:54:19.389Z,5.90
2018-06-18T10:56:48.739Z,8.73
2018-06-18T10:59:17.960Z,4.03
2018-06-18T11:01:47.273Z,2.70
2018-06-18T11:04:21.690Z,4.70
2018-06-18T11:06:51.025Z,8.90
2018-06-18T11:09:22.228Z,5.50
2018-06-18T11:11:52.258Z,6.17
2018-06-18T11:14:21.559Z,3.53
2018-06-18T11:16:56.271Z,5.47
2018-06-18T11:19:30.657Z,6.10
2018-06-18T11:22:06.253Z,5.37
2018-06-18T11:24:40.727Z,6.37
2018-06-18T11:27:10.904Z,3.53
2018-06-18T11:29:40.295Z,5.90
2018-06-18T11:32:09.694Z,4.30
2018-06-18T11:34:39.003Z,4.37
2018-06-18T11:37:14.644Z,4.90
2018-06-18T11:39:51.520Z,5.90
2018-06-18T11:42:25.124Z,5.83
2018-06-18T11:45:01.342Z,4.53
2018-06-18T11:47:31.655Z,3.47
2018-06-18T11:50:09.221Z,6.53
2018-06-18T11:52:44.747Z,3.40
2018-06-18T11:55:15.966Z,4.80
2018-06-18T11:57:51.542Z,4.07
2018-06-18T12:00:28.164Z,4.83
2018-06-18T12:03:04.439Z,4.15
2018-06-18T12:05:40.059Z,4.20
2018-06-18T12:08:15.580Z,2.80
2018-06-18T12:10:47.113Z,2.50
2018-06-18T12:13:20.550Z,3.33
2018-06-18T12:15:49.951Z,2.67
2018-06-18T12:18:19.203Z,2.33
2018-06-18T12:20:48.510Z,4.47
2018-06-18T12:23:17.924Z,4.63
2018-06-18T12:25:51.276Z,2.70
2018-06-18T12:28:28.851Z,3.50
2018-06-18T12:30:58.813Z,5.43
2018-06-18T12:33:28.110Z,3.80
2018-06-18T12:35:57.502Z,2.50
2018-06-18T12:38:26.890Z,3.23
2018-06-18T12:40:56.140Z,3.57
2018-06-18T12:43:27.616Z,5.83
2018-06-18T12:46:02.173Z,4.63
2018-06-18T12:48:36.802Z,2.23
2018-06-18T12:51:11.359Z,7.20
2018-06-18T12:53:45.986Z,3.30
2018-06-18T12:56:20.694Z,1.70
2018-06-18T12:58:51.509Z,3.20
2018-06-18T13:01:22.868Z,5.90
2018-06-18T13:03:52.302Z,3.97
2018-06-18T13:06:22.767Z,3.10
2018-06-18T13:08:52.073Z,2.77
2018-06-18T13:11:21.506Z,4.40
2018-06-18T13:13:50.948Z,5.03
2018-06-18T13:16:21.987Z,3.80
2018-06-18T13:18:51.283Z,2.50
2018-06-18T13:21:20.793Z,2.13
2018-06-18T13:23:50.011Z,2.33
2018-06-18T13:26:19.277Z,2.50
2018-06-18T13:28:48.827Z,1.77
2018-06-18T13:31:18.347Z,2.90
2018-06-18T13:33:47.822Z,2.40
2018-06-18T13:36:17.374Z,2.27
2018-06-18T13:38:51.762Z,3.03
2018-06-18T13:41:26.123Z,2.23
2018-06-18T13:44:00.700Z,3.43
2018-06-18T13:46:35.044Z,3.53
2018-06-18T13:49:07.585Z,4.27
2018-06-18T13:51:38.525Z,3.30
2018-06-18T13:54:08.121Z,3.00
2018-06-18T13:56:37.810Z,2.13
2018-06-18T13:59:07.448Z,4.20
2018-06-18T14:01:36.783Z,3.87
2018-06-18T14:04:06.282Z,3.17
2018-06-18T14:06:36.264Z,3.10
2018-06-18T14:09:07.010Z,2.43
2018-06-18T14:11:36.663Z,4.40
2018-06-18T14:14:06.724Z,3.67
2018-06-18T14:16:36.221Z,3.50
2018-06-18T14:19:10.927Z,2.87
2018-06-18T14:21:40.252Z,5.53
2018-06-18T14:24:09.628Z,4.53
2018-06-18T14:26:39.346Z,3.80
2018-06-18T14:29:12.876Z,2.20
2018-06-18T14:31:47.484Z,3.97
2018-06-18T14:34:22.099Z,3.07
2018-06-18T14:36:56.507Z,3.57
2018-06-18T14:39:46.624Z,4.90
2018-06-18T14:42:16.136Z,2.60
2018-06-18T14:44:45.359Z,2.60
2018-06-18T14:47:16.357Z,3.03
2018-06-18T14:49:45.814Z,3.33
2018-06-18T14:52:15.303Z,4.40
2018-06-18T14:54:46.091Z,3.03
2018-06-18T14:57:15.679Z,4.50
2018-06-18T14:59:53.584Z,3.37
2018-06-18T15:02:23.663Z,4.80
2018-06-18T15:04:53.605Z,5.43
2018-06-18T15:07:23.559Z,3.83
2018-06-18T15:09:52.921Z,2.87
2018-06-18T15:12:24.514Z,2.77
2018-06-18T15:14:59.098Z,3.23
2018-06-18T15:17:28.416Z,4.97
2018-06-18T15:19:58.432Z,3.33
2018-06-18T15:22:29.701Z,3.10
2018-06-18T15:25:04.987Z,3.00
2018-06-18T15:27:35.118Z,2.57
2018-06-18T15:30:04.900Z,3.63
2018-06-18T15:32:34.311Z,2.57
2018-06-18T15:35:05.539Z,2.93
2018-06-18T15:37:34.916Z,2.83
2018-06-18T15:40:04.484Z,5.47
2018-06-18T15:42:33.877Z,2.43
2018-06-18T15:45:03.510Z,2.57
2018-06-18T15:47:33.196Z,5.07
2018-06-18T15:50:03.301Z,4.40
2018-06-18T15:52:32.656Z,3.87
2018-06-18T15:55:02.165Z,4.17
2018-06-18T15:57:31.671Z,3.30
2018-06-18T16:00:01.336Z,4.07
2018-06-18T16:02:30.619Z,3.73
2018-06-18T16:04:59.903Z,4.90
2018-06-18T16:07:29.191Z,4.50
2018-06-18T16:09:58.534Z,2.53
2018-06-18T16:12:27.759Z,6.53
2018-06-18T16:14:57.074Z,4.03
2018-06-18T16:17:26.452Z,4.07
2018-06-18T16:19:55.689Z,3.63
2018-06-18T16:22:25.109Z,4.00
2018-06-18T16:24:54.591Z,2.50
2018-06-18T16:27:23.896Z,2.93
2018-06-18T16:29:53.169Z,5.23
2018-06-18T16:32:22.442Z,5.53
2018-06-18T16:34:51.731Z,3.53
2018-06-18T16:37:21.870Z,3.73
2018-06-18T16:39:51.052Z,5.47
2018-06-18T16:42:20.346Z,3.70
2018-06-18T16:44:49.627Z,3.60
2018-06-18T16:47:18.969Z,2.33
2018-06-18T16:49:48.496Z,4.00
2018-06-18T16:52:17.823Z,3.07
2018-06-18T16:54:47.183Z,3.20
2018-06-18T16:57:16.672Z,2.10
2018-06-18T16:59:46.036Z,2.43
2018-06-18T17:02:15.419Z,4.17
2018-06-18T17:04:44.669Z,3.83
2018-06-18T17:07:15.183Z,3.13
2018-06-18T17:09:49.322Z,3.83
2018-06-18T17:12:19.892Z,4.83
2018-06-18T17:14:49.803Z,2.47
2018-06-18T17:17:20.741Z,2.07
2018-06-18T17:19:54.948Z,3.93
2018-06-18T17:22:24.831Z,2.10
2018-06-18T17:24:54.674Z,2.90
2018-06-18T17:27:25.043Z,6.20
2018-06-18T17:29:57.035Z,3.77
2018-06-18T17:32:26.832Z,3.13
2018-06-18T17:34:56.271Z,4.80
2018-06-18T17:37:27.184Z,4.53
2018-06-18T17:39:56.444Z,5.83
2018-06-18T17:42:25.817Z,3.10
2018-06-18T17:44:55.036Z,3.87
2018-06-18T17:47:24.335Z,5.00
2018-06-18T17:49:54.876Z,3.17
2018-06-18T17:52:24.359Z,5.30
2018-06-18T17:54:54.153Z,3.53
2018-06-18T17:57:23.575Z,3.80
2018-06-18T17:59:53.439Z,2.83
2018-06-18T18:02:22.886Z,3.47
2018-06-18T18:04:57.361Z,3.23
2018-06-18T18:07:28.791Z,3.00
2018-06-18T18:09:59.337Z,3.73
2018-06-18T18:12:28.754Z,3.03
2018-06-18T18:14:58.807Z,4.97
2018-06-18T18:17:29.017Z,4.00
2018-06-18T18:19:58.630Z,4.27
2018-06-18T18:22:28.574Z,4.23
2018-06-18T18:24:57.941Z,5.20
2018-06-18T18:27:39.964Z,3.53
2018-06-18T18:30:16.127Z,3.63
2018-06-18T18:33:03.170Z,5.20
2018-06-18T18:35:40.070Z,3.60
2018-06-18T18:38:15.131Z,6.47
2018-06-18T18:40:48.630Z,3.70
2018-06-18T18:43:22.514Z,4.53
2018-06-18T18:45:55.336Z,3.03
2018-06-18T18:48:31.067Z,3.80
2018-06-18T18:51:02.959Z,3.10
2018-06-18T18:53:33.757Z,4.90
2018-06-18T18:56:15.961Z,5.53
2018-06-18T18:59:00.618Z,4.00
2018-06-18T19:01:34.294Z,5.07
2018-06-18T19:04:07.590Z,3.13
2018-06-18T19:06:40.915Z,3.80
2018-06-18T19:09:12.860Z,6.27
2018-06-18T19:11:43.523Z,4.20
2018-06-18T19:14:15.293Z,9.60
2018-06-18T19:16:47.540Z,7.87
2018-06-18T19:19:21.846Z,5.90
2018-06-18T19:21:57.325Z,7.37
2018-06-18T19:24:38.369Z,7.27
2018-06-18T19:27:08.321Z,6.43
2018-06-18T19:29:38.933Z,6.30
2018-06-18T19:32:09.200Z,6.30
2018-06-18T19:34:40.072Z,6.40
2018-06-18T19:37:13.164Z,5.77
2018-06-18T19:39:50.557Z,5.83
2018-06-18T19:42:24.177Z,5.70
2018-06-18T19:44:57.236Z,6.23
2018-06-18T19:47:39.009Z,7.03
2018-06-18T19:50:09.915Z,5.83
2018-06-18T19:52:40.704Z,6.97
2018-06-18T19:55:14.948Z,8.13
2018-06-18T19:57:45.423Z,7.40
2018-06-18T20:00:15.756Z,7.67
2018-06-18T20:02:48.079Z,6.80
2018-06-18T20:05:17.777Z,7.30
2018-06-18T20:07:54.014Z,9.23
2018-06-18T20:10:25.377Z,7.17
2018-06-18T20:12:56.250Z,8.00
2018-06-18T20:15:27.472Z,9.73
2018-06-18T20:17:58.273Z,7.87
2018-06-18T20:20:31.367Z,8.37
2018-06-18T20:23:05.082Z,8.50
2018-06-18T20:25:39.456Z,8.30
2018-06-18T20:28:09.576Z,7.70
2018-06-18T20:30:45.462Z,7.77
2018-06-18T20:33:16.914Z,8.10
2018-06-18T20:35:56.982Z,8.00
2018-06-18T20:38:26.773Z,8.23
2018-06-18T20:40:57.991Z,8.83
2018-06-18T20:44:35.168Z,9.60
2018-06-18T20:47:04.811Z,7.63
2018-06-18T20:49:34.117Z,9.23
2018-06-18T20:52:04.777Z,9.03
2018-06-18T20:54:34.196Z,8.60
2018-06-18T20:57:03.783Z,9.80
2018-06-18T20:59:33.182Z,8.40
2018-06-18T21:02:02.652Z,8.97
2018-06-18T21:04:32.392Z,9.27
2018-06-18T21:07:02.995Z,8.47
2018-06-18T21:09:32.419Z,8.77
2018-06-18T21:12:01.877Z,8.83
2018-06-18T21:14:31.282Z,10.13
2018-06-18T21:17:00.635Z,8.40
2018-06-18T21:19:29.958Z,10.53
2018-06-18T21:21:59.331Z,8.07
2018-06-18T21:24:28.612Z,9.40
2018-06-18T21:26:57.988Z,10.17
2018-06-18T21:29:27.356Z,9.03
2018-06-18T21:31:56.695Z,9.10
2018-06-18T21:34:25.961Z,11.53
2018-06-18T21:36:55.368Z,8.67
2018-06-18T21:39:24.608Z,9.20
2018-06-18T21:41:53.958Z,10.27
2018-06-18T21:44:29.181Z,10.23
2018-06-18T21:46:58.499Z,9.80
2018-06-18T21:49:27.980Z,10.17
2018-06-18T21:51:57.488Z,11.63
2018-06-18T21:54:26.791Z,10.03
2018-06-18T21:56:56.168Z,10.57
2018-06-18T21:59:25.497Z,11.13
2018-06-18T22:01:54.782Z,11.53
2018-06-18T22:04:24.036Z,10.23
2018-06-18T22:06:53.331Z,10.67
2018-06-18T22:09:22.920Z,10.93
2018-06-18T22:11:53.878Z,10.60
2018-06-18T22:14:24.027Z,12.60
2018-06-18T22:16:53.440Z,10.33
2018-06-18T22:19:22.660Z,10.37
2018-06-18T22:21:51.995Z,9.97
2018-06-18T22:24:21.312Z,11.47
2018-06-18T22:26:50.649Z,10.43
2018-06-18T22:29:19.904Z,10.47
2018-06-18T22:31:49.199Z,9.63
2018-06-18T22:34:18.478Z,10.83
2018-06-18T22:36:47.785Z,9.50
2018-06-18T22:39:17.083Z,11.20
2018-06-18T22:41:46.380Z,10.30
2018-06-18T22:44:15.662Z,10.10
2018-06-18T22:46:44.955Z,9.03
2018-06-18T22:49:14.264Z,7.90
2018-06-18T22:51:43.552Z,10.73
2018-06-18T22:54:12.852Z,7.97
2018-06-18T22:56:42.219Z,8.30
2018-06-18T22:59:11.534Z,8.60
2018-06-18T23:01:40.972Z,11.10
2018-06-18T23:04:10.268Z,8.40
2018-06-18T23:06:39.480Z,9.63
2018-06-18T23:09:10.665Z,9.57
2018-06-18T23:11:40.068Z,7.93
2018-06-18T23:14:12.220Z,6.80
2018-06-18T23:16:41.504Z,8.17
2018-06-18T23:19:10.781Z,8.80
2018-06-18T23:21:40.497Z,9.63
2018-06-18T23:24:09.717Z,7.70
2018-06-18T23:26:39.231Z,8.50
2018-06-18T23:29:11.304Z,8.07
2018-06-18T23:31:40.589Z,7.67
2018-06-18T23:34:09.982Z,8.40
2018-06-18T23:36:39.284Z,7.93
2018-06-18T23:39:09.945Z,12.30
2018-06-18T23:41:45.814Z,7.70
2018-06-18T23:44:15.120Z,7.30
2018-06-18T23:46:44.415Z,8.40
2018-06-18T23:49:13.743Z,9.73
2018-06-18T23:51:42.983Z,10.03
2018-06-18T23:54:12.823Z,8.10
2018-06-18T23:56:41.950Z,8.53
2018-06-18T23:59:11.308Z,8.70
